createdAt,value
2019-01-31T00:02:36.559Z,97815.00
2019-01-31T00:05:24.056Z,97818.00
2019-01-31T00:08:20.450Z,97818.00
2019-01-31T00:11:04.376Z,97827.00
2019-01-31T00:13:36.663Z,97829.00
2019-01-31T00:16:08.908Z,97823.00
2019-01-31T00:18:44.003Z,97831.00
2019-01-31T00:21:26.593Z,97827.00
2019-01-31T00:23:58.848Z,97821.00
2019-01-31T00:26:33.682Z,97826.00
2019-01-31T00:29:22.382Z,97821.00
2019-01-31T00:32:11.196Z,97836.00
2019-01-31T00:35:02.724Z,97837.00
2019-01-31T00:38:03.959Z,97845.00
2019-01-31T00:40:52.775Z,97838.00
2019-01-31T00:43:25.024Z,97836.00
2019-01-31T00:46:17.079Z,97844.00
2019-01-31T00:49:10.025Z,97848.00
2019-01-31T00:51:51.252Z,97849.00
2019-01-31T00:54:38.491Z,97844.00
2019-01-31T00:57:33.421Z,97836.00
2019-01-31T01:00:14.647Z,97838.00
2019-01-31T01:03:11.008Z,97847.00
2019-01-31T01:06:16.821Z,97847.00
2019-01-31T01:09:17.422Z,97850.00
2019-01-31T01:12:00.159Z,97852.00
2019-01-31T01:14:46.947Z,97856.00
2019-01-31T01:17:19.189Z,97854.00
2019-01-31T01:20:19.895Z,97859.00
2019-01-31T01:22:55.078Z,97863.00
2019-01-31T01:25:37.687Z,97859.00
2019-01-31T01:28:29.408Z,97861.00
2019-01-31T01:31:24.056Z,97869.00
2019-01-31T01:34:31.233Z,97874.00
2019-01-31T01:37:13.961Z,97873.00
2019-01-31T01:40:19.863Z,97868.00
2019-01-31T01:43:08.752Z,97869.00
2019-01-31T01:45:46.742Z,97870.00
2019-01-31T01:48:27.756Z,97877.00
2019-01-31T01:51:13.268Z,97887.00
2019-01-31T01:53:57.197Z,97881.00
2019-01-31T01:56:55.273Z,97883.00
2019-01-31T01:59:47.637Z,97891.00
2019-01-31T02:02:39.588Z,97885.00
2019-01-31T02:05:30.550Z,97880.00
2019-01-31T02:08:16.493Z,97884.00
2019-01-31T02:11:14.432Z,97874.00
2019-01-31T02:13:55.366Z,97873.00
2019-01-31T02:16:30.322Z,97875.00
2019-01-31T02:19:19.498Z,97875.00
2019-01-31T02:22:11.351Z,97875.00
2019-01-31T02:24:46.358Z,97876.00
2019-01-31T02:27:23.510Z,97871.00
2019-01-31T02:30:07.402Z,97867.00
2019-01-31T02:32:48.634Z,97865.00
2019-01-31T02:35:28.017Z,97869.00
2019-01-31T02:38:03.054Z,97868.00
2019-01-31T02:40:54.980Z,97869.00
2019-01-31T02:43:43.374Z,97869.00
2019-01-31T02:46:32.269Z,97877.00
2019-01-31T02:49:07.297Z,97872.00
2019-01-31T02:52:08.043Z,97875.00
2019-01-31T02:54:49.397Z,97878.00
2019-01-31T02:57:36.126Z,97878.00
2019-01-31T03:00:37.436Z,97878.00
2019-01-31T03:03:09.684Z,97890.00
2019-01-31T03:05:58.843Z,97882.00
2019-01-31T03:08:49.146Z,97885.00
2019-01-31T03:11:29.342Z,97886.00
2019-01-31T03:14:12.202Z,97885.00
2019-01-31T03:16:56.436Z,97891.00
2019-01-31T03:19:31.610Z,97886.00
2019-01-31T03:22:03.865Z,97892.00
2019-01-31T03:24:49.807Z,97890.00
2019-01-31T03:27:55.551Z,97899.00
2019-01-31T03:31:04.384Z,97900.00
2019-01-31T03:34:16.550Z,97893.00
2019-01-31T03:37:06.995Z,97896.00
2019-01-31T03:40:07.096Z,97893.00
2019-01-31T03:42:57.834Z,97902.00
2019-01-31T03:45:52.981Z,97897.00
2019-01-31T03:48:43.133Z,97898.00
2019-01-31T03:51:26.697Z,97899.00
2019-01-31T03:54:35.013Z,97902.00
2019-01-31T03:57:10.325Z,97912.00
2019-01-31T03:59:39.754Z,97907.00
2019-01-31T04:02:23.923Z,97902.00
2019-01-31T04:04:56.192Z,97900.00
2019-01-31T04:07:25.590Z,97904.00
2019-01-31T04:09:54.664Z,97907.00
2019-01-31T04:12:24.054Z,97905.00
2019-01-31T04:14:53.160Z,97905.00
2019-01-31T04:17:22.515Z,97908.00
2019-01-31T04:19:51.661Z,97901.00
2019-01-31T04:22:21.017Z,97908.00
2019-01-31T04:24:50.144Z,97895.00
2019-01-31T04:27:19.236Z,97892.00
2019-01-31T04:29:48.592Z,97899.00
2019-01-31T04:32:17.728Z,97908.00
2019-01-31T04:34:46.812Z,97899.00
2019-01-31T04:37:16.204Z,97898.00
2019-01-31T04:39:45.303Z,97903.00
2019-01-31T04:42:14.695Z,97905.00
2019-01-31T04:44:43.758Z,97908.00
2019-01-31T04:47:13.120Z,97915.00
2019-01-31T04:49:42.227Z,97910.00
2019-01-31T04:52:11.680Z,97910.00
2019-01-31T04:54:41.021Z,97911.00
2019-01-31T04:57:10.132Z,97912.00
2019-01-31T04:59:39.236Z,97919.00
2019-01-31T05:02:08.412Z,97915.00
2019-01-31T05:04:37.759Z,97914.00
2019-01-31T05:07:06.905Z,97922.00
2019-01-31T05:09:36.000Z,97916.00
2019-01-31T05:12:05.152Z,97929.00
2019-01-31T05:14:34.256Z,97931.00
2019-01-31T05:17:03.626Z,97923.00
2019-01-31T05:19:32.694Z,97937.00
2019-01-31T05:22:01.909Z,97931.00
2019-01-31T05:24:31.040Z,97928.00
2019-01-31T05:27:00.354Z,97924.00
2019-01-31T05:29:29.767Z,97916.00
2019-01-31T05:31:58.879Z,97929.00
2019-01-31T05:34:27.964Z,97930.00
2019-01-31T05:39:23.809Z,97932.00
2019-01-31T05:41:52.878Z,97924.00
2019-01-31T05:44:21.978Z,97925.00
2019-01-31T05:46:51.070Z,97936.00
2019-01-31T05:49:20.424Z,97936.00
2019-01-31T05:51:49.826Z,97927.00
2019-01-31T05:54:18.954Z,97934.00
2019-01-31T05:56:48.061Z,97934.00
2019-01-31T05:59:17.154Z,97926.00
2019-01-31T06:01:46.265Z,97934.00
2019-01-31T06:04:15.418Z,97928.00
2019-01-31T06:06:44.771Z,97938.00
2019-01-31T06:09:14.137Z,97935.00
2019-01-31T06:11:43.208Z,97935.00
2019-01-31T06:14:12.614Z,97939.00
2019-01-31T06:16:41.690Z,97943.00
2019-01-31T06:19:11.045Z,97939.00
2019-01-31T06:21:40.125Z,97941.00
2019-01-31T06:24:09.235Z,97943.00
2019-01-31T06:26:38.317Z,97954.00
2019-01-31T06:29:07.465Z,97960.00
2019-01-31T06:31:37.151Z,97953.00
2019-01-31T06:34:06.255Z,97958.00
2019-01-31T06:36:35.343Z,97959.00
2019-01-31T06:39:07.017Z,97960.00
2019-01-31T06:41:36.231Z,97955.00
2019-01-31T06:44:05.342Z,97965.00
2019-01-31T06:46:34.426Z,97978.00
2019-01-31T06:49:03.786Z,97975.00
2019-01-31T06:51:32.901Z,97977.00
2019-01-31T06:54:02.087Z,97979.00
2019-01-31T06:56:31.430Z,97976.00
2019-01-31T06:59:00.581Z,97985.00
2019-01-31T07:01:29.924Z,97980.00
2019-01-31T07:03:59.286Z,97991.00
2019-01-31T07:06:28.473Z,97988.00
2019-01-31T07:08:59.108Z,97991.00
2019-01-31T07:11:30.269Z,97990.00
2019-01-31T07:13:58.930Z,97992.00
2019-01-31T07:16:28.053Z,97996.00
2019-01-31T07:18:57.181Z,97997.00
2019-01-31T07:21:26.535Z,97995.00
2019-01-31T07:23:55.638Z,97998.00
2019-01-31T07:26:24.724Z,98002.00
2019-01-31T07:28:53.845Z,98010.00
2019-01-31T07:31:22.937Z,98013.00
2019-01-31T07:33:52.055Z,98006.00
2019-01-31T07:36:21.236Z,98017.00
2019-01-31T07:38:50.688Z,98007.00
2019-01-31T07:41:20.037Z,98006.00
2019-01-31T07:43:49.392Z,98013.00
2019-01-31T07:46:18.493Z,98015.00
2019-01-31T07:48:47.569Z,98017.00
2019-01-31T07:51:16.694Z,98015.00
2019-01-31T07:53:45.800Z,98008.00
2019-01-31T07:56:14.946Z,98010.00
2019-01-31T07:58:44.049Z,98006.00
2019-01-31T08:01:13.234Z,98013.00
2019-01-31T08:03:42.622Z,98010.00
2019-01-31T08:06:12.049Z,98006.00
2019-01-31T08:08:41.361Z,98007.00
2019-01-31T08:11:10.804Z,98015.00
2019-01-31T08:13:39.942Z,98018.00
2019-01-31T08:16:09.279Z,98021.00
2019-01-31T08:18:38.385Z,98005.00
2019-01-31T08:21:07.790Z,98012.00
2019-01-31T08:23:37.209Z,98011.00
2019-01-31T08:26:06.280Z,98021.00
2019-01-31T08:28:35.668Z,98028.00
2019-01-31T08:31:05.218Z,98022.00
2019-01-31T08:33:34.882Z,98022.00
2019-01-31T08:36:04.303Z,98030.00
2019-01-31T08:38:36.599Z,98025.00
2019-01-31T08:41:04.568Z,98026.00
2019-01-31T08:43:34.046Z,98034.00
2019-01-31T08:46:03.140Z,98036.00
2019-01-31T08:48:32.275Z,98025.00
2019-01-31T08:51:01.377Z,98025.00
2019-01-31T08:53:30.502Z,98021.00
2019-01-31T08:55:59.609Z,98030.00
2019-01-31T08:58:28.734Z,98034.00
2019-01-31T09:00:58.087Z,98031.00
2019-01-31T09:03:27.290Z,98026.00
2019-01-31T09:05:56.707Z,98031.00
2019-01-31T09:08:26.059Z,98027.00
2019-01-31T09:10:55.197Z,98037.00
2019-01-31T09:13:25.369Z,98040.00
2019-01-31T09:15:54.700Z,98041.00
2019-01-31T09:18:23.826Z,98052.00
2019-01-31T09:21:00.426Z,98051.00
2019-01-31T09:23:53.410Z,98051.00
2019-01-31T09:26:44.653Z,98056.00
2019-01-31T09:29:34.446Z,98056.00
2019-01-31T09:32:15.733Z,98059.00
2019-01-31T09:35:14.170Z,98059.00
2019-01-31T09:38:13.625Z,98059.00
2019-01-31T09:41:04.448Z,98056.00
2019-01-31T09:43:42.269Z,98048.00
2019-01-31T09:46:24.413Z,98040.00
2019-01-31T09:49:16.200Z,98055.00
2019-01-31T09:52:05.126Z,98058.00
2019-01-31T09:54:40.068Z,98069.00
2019-01-31T09:57:19.939Z,98072.00
2019-01-31T09:59:59.884Z,98071.00
2019-01-31T10:02:54.721Z,98079.00
2019-01-31T10:05:32.668Z,98068.00
2019-01-31T10:08:24.599Z,98067.00
2019-01-31T10:11:18.279Z,98066.00
2019-01-31T10:14:20.985Z,98073.00
2019-01-31T10:17:10.527Z,98075.00
2019-01-31T10:19:45.337Z,98077.00
2019-01-31T10:22:31.562Z,98071.00
2019-01-31T10:25:26.242Z,98072.00
2019-01-31T10:28:13.491Z,98067.00
2019-01-31T10:30:59.546Z,98065.00
2019-01-31T10:34:03.962Z,98074.00
2019-01-31T10:36:39.011Z,98061.00
2019-01-31T10:39:52.278Z,98059.00
2019-01-31T10:42:36.987Z,98063.00
2019-01-31T10:45:50.172Z,98064.00
2019-01-31T10:48:31.165Z,98058.00
2019-01-31T10:51:24.452Z,98060.00
2019-01-31T10:53:56.705Z,98046.00
2019-01-31T10:56:47.032Z,98045.00
2019-01-31T10:59:28.585Z,98053.00
2019-01-31T11:02:15.710Z,98045.00
2019-01-31T11:05:12.084Z,98051.00
2019-01-31T11:07:59.583Z,98041.00
2019-01-31T11:10:40.177Z,98032.00
2019-01-31T11:13:33.270Z,98037.00
2019-01-31T11:16:17.470Z,98042.00
2019-01-31T11:19:12.398Z,98031.00
2019-01-31T11:22:16.554Z,98036.00
2019-01-31T11:25:11.495Z,98038.00
2019-01-31T11:27:57.080Z,98027.00
2019-01-31T11:30:34.753Z,98041.00
2019-01-31T11:33:27.097Z,98040.00
2019-01-31T11:36:03.672Z,98032.00
2019-01-31T11:38:50.979Z,98030.00
2019-01-31T11:41:43.309Z,98026.00
2019-01-31T11:44:21.461Z,98018.00
2019-01-31T11:47:11.705Z,98023.00
2019-01-31T11:49:50.035Z,98023.00
2019-01-31T11:52:39.634Z,98022.00
2019-01-31T11:55:20.270Z,98030.00
2019-01-31T11:58:10.971Z,98016.00
2019-01-31T12:00:40.441Z,98012.00
2019-01-31T12:03:09.634Z,98024.00
2019-01-31T12:05:38.992Z,98015.00
2019-01-31T12:08:08.711Z,98021.00
2019-01-31T12:10:37.833Z,98015.00
2019-01-31T12:13:07.200Z,98017.00
2019-01-31T12:15:36.522Z,98022.00
2019-01-31T12:18:06.850Z,98017.00
2019-01-31T12:20:35.934Z,98011.00
2019-01-31T12:23:05.430Z,98004.00
2019-01-31T12:25:34.533Z,98005.00
2019-01-31T12:28:03.636Z,98003.00
2019-01-31T12:30:33.003Z,97996.00
2019-01-31T12:33:02.209Z,97995.00
2019-01-31T12:35:31.585Z,97999.00
2019-01-31T12:38:00.934Z,98000.00
2019-01-31T12:40:30.044Z,97997.00
2019-01-31T12:42:59.416Z,97991.00
2019-01-31T12:45:28.492Z,97981.00
2019-01-31T12:47:57.610Z,97978.00
2019-01-31T12:50:26.797Z,97973.00
2019-01-31T12:52:55.980Z,97979.00
2019-01-31T12:55:25.356Z,97974.00
2019-01-31T12:57:54.510Z,97974.00
2019-01-31T13:00:28.410Z,97970.00
2019-01-31T13:02:57.516Z,97971.00
2019-01-31T13:05:26.769Z,97972.00
2019-01-31T13:07:56.203Z,97966.00
2019-01-31T13:10:25.600Z,97971.00
2019-01-31T13:12:54.973Z,97975.00
2019-01-31T13:15:24.327Z,97964.00
2019-01-31T13:17:54.202Z,97960.00
2019-01-31T13:20:42.658Z,97961.00
2019-01-31T13:23:11.833Z,97962.00
2019-01-31T13:25:41.059Z,97964.00
2019-01-31T13:28:10.580Z,97964.00
2019-01-31T13:30:40.427Z,97963.00
2019-01-31T13:33:09.525Z,97967.00
2019-01-31T13:35:38.872Z,97966.00
2019-01-31T13:38:08.313Z,97962.00
2019-01-31T13:40:37.395Z,97966.00
2019-01-31T13:43:06.798Z,97963.00
2019-01-31T13:45:36.402Z,97963.00
2019-01-31T13:48:09.749Z,97963.00
2019-01-31T13:50:39.251Z,97962.00
2019-01-31T13:53:09.146Z,97967.00
2019-01-31T13:55:38.865Z,97970.00
2019-01-31T13:58:10.282Z,97970.00
2019-01-31T14:00:39.343Z,97967.00
2019-01-31T14:03:08.757Z,97968.00
2019-01-31T14:05:37.889Z,97975.00
2019-01-31T14:08:07.067Z,97965.00
2019-01-31T14:10:37.463Z,97962.00
2019-01-31T14:13:07.237Z,97969.00
2019-01-31T14:15:37.545Z,97975.00
2019-01-31T14:18:06.731Z,97963.00
2019-01-31T14:20:36.345Z,97965.00
2019-01-31T14:23:05.922Z,97967.00
2019-01-31T14:25:35.076Z,97972.00
2019-01-31T14:28:04.240Z,97970.00
2019-01-31T14:30:36.605Z,97978.00
2019-01-31T14:33:08.685Z,97974.00
2019-01-31T14:35:38.118Z,97978.00
2019-01-31T14:38:07.781Z,97970.00
2019-01-31T14:40:36.907Z,97978.00
2019-01-31T14:43:06.084Z,97978.00
2019-01-31T14:45:35.449Z,97973.00
2019-01-31T14:48:04.996Z,97967.00
2019-01-31T14:50:36.457Z,97963.00
2019-01-31T14:53:06.763Z,97965.00
2019-01-31T14:55:36.099Z,97967.00
2019-01-31T14:58:07.240Z,97968.00
2019-01-31T15:00:36.745Z,97969.00
2019-01-31T15:03:06.456Z,97970.00
2019-01-31T15:05:36.807Z,97966.00
2019-01-31T15:08:06.722Z,97967.00
2019-01-31T15:10:36.162Z,97966.00
2019-01-31T15:13:05.405Z,97964.00
2019-01-31T15:15:34.738Z,97967.00
2019-01-31T15:18:04.373Z,97969.00
2019-01-31T15:20:38.851Z,97961.00
2019-01-31T15:23:08.191Z,97966.00
2019-01-31T15:25:37.539Z,97970.00
2019-01-31T15:28:06.641Z,97965.00
2019-01-31T15:30:37.466Z,97960.00
2019-01-31T15:33:10.945Z,97960.00
2019-01-31T15:35:40.410Z,97964.00
2019-01-31T15:38:10.278Z,97955.00
2019-01-31T15:40:46.476Z,97956.00
2019-01-31T15:43:15.550Z,97962.00
2019-01-31T15:45:45.025Z,97963.00
2019-01-31T15:48:14.566Z,97962.00
2019-01-31T15:50:43.704Z,97964.00
2019-01-31T15:53:13.072Z,97961.00
2019-01-31T15:55:42.613Z,97966.00
2019-01-31T15:58:12.098Z,97967.00
2019-01-31T16:00:46.996Z,97967.00
2019-01-31T16:03:18.069Z,97959.00
2019-01-31T16:05:47.258Z,97972.00
2019-01-31T16:08:16.935Z,97966.00
2019-01-31T16:10:46.425Z,97957.00
2019-01-31T16:13:15.574Z,97956.00
2019-01-31T16:15:44.749Z,97959.00
2019-01-31T16:18:14.374Z,97957.00
2019-01-31T16:20:43.585Z,97954.00
2019-01-31T16:23:13.041Z,97963.00
2019-01-31T16:25:42.121Z,97952.00
2019-01-31T16:28:11.260Z,97958.00
2019-01-31T16:30:40.649Z,97954.00
2019-01-31T16:33:10.046Z,97958.00
2019-01-31T16:35:39.224Z,97958.00
2019-01-31T16:38:08.584Z,97952.00
2019-01-31T16:40:38.324Z,97948.00
2019-01-31T16:43:07.583Z,97949.00
2019-01-31T16:45:37.329Z,97946.00
2019-01-31T16:48:06.565Z,97946.00
2019-01-31T16:50:35.662Z,97948.00
2019-01-31T16:53:05.439Z,97945.00
2019-01-31T16:55:34.553Z,97943.00
2019-01-31T16:58:03.765Z,97947.00
2019-01-31T17:00:36.123Z,97951.00
2019-01-31T17:03:06.153Z,97952.00
2019-01-31T17:05:35.549Z,97954.00
2019-01-31T17:08:06.312Z,97945.00
2019-01-31T17:10:35.486Z,97943.00
2019-01-31T17:13:04.737Z,97927.00
2019-01-31T17:15:33.849Z,97937.00
2019-01-31T17:18:03.772Z,97933.00
2019-01-31T17:20:37.406Z,97930.00
2019-01-31T17:23:06.572Z,97929.00
2019-01-31T17:25:35.678Z,97924.00
2019-01-31T17:28:05.086Z,97919.00
2019-01-31T17:30:34.536Z,97922.00
2019-01-31T17:33:03.920Z,97922.00
2019-01-31T17:35:34.085Z,97915.00
2019-01-31T17:38:03.547Z,97912.00
2019-01-31T17:40:35.536Z,97916.00
2019-01-31T17:43:05.825Z,97908.00
2019-01-31T17:45:34.976Z,97910.00
2019-01-31T17:48:04.430Z,97910.00
2019-01-31T17:50:33.517Z,97908.00
2019-01-31T17:53:02.726Z,97909.00
2019-01-31T17:55:31.820Z,97911.00
2019-01-31T17:58:00.937Z,97904.00
2019-01-31T18:00:41.597Z,97914.00
2019-01-31T18:03:11.038Z,97898.00
2019-01-31T18:05:40.398Z,97905.00
2019-01-31T18:08:09.747Z,97905.00
2019-01-31T18:10:38.970Z,97905.00
2019-01-31T18:13:08.436Z,97903.00
2019-01-31T18:15:42.142Z,97902.00
2019-01-31T18:18:08.865Z,97903.00
2019-01-31T18:20:37.985Z,97903.00
2019-01-31T18:23:07.672Z,97898.00
2019-01-31T18:25:36.760Z,97892.00
2019-01-31T18:28:06.024Z,97889.00
2019-01-31T18:30:39.208Z,97885.00
2019-01-31T18:33:08.629Z,97893.00
2019-01-31T18:35:37.733Z,97892.00
2019-01-31T18:38:06.990Z,97885.00
2019-01-31T18:40:36.664Z,97880.00
2019-01-31T18:43:06.356Z,97877.00
2019-01-31T18:45:36.119Z,97878.00
2019-01-31T18:48:06.866Z,97888.00
2019-01-31T18:50:41.058Z,97878.00
2019-01-31T18:53:10.208Z,97881.00
2019-01-31T18:55:39.396Z,97885.00
2019-01-31T18:58:08.566Z,97892.00
2019-01-31T19:00:39.930Z,97883.00
2019-01-31T19:03:09.500Z,97889.00
2019-01-31T19:05:38.629Z,97884.00
2019-01-31T19:08:09.070Z,97883.00
2019-01-31T19:10:43.502Z,97884.00
2019-01-31T19:13:09.502Z,97880.00
2019-01-31T19:15:38.614Z,97871.00
2019-01-31T19:18:08.117Z,97883.00
2019-01-31T19:20:37.642Z,97883.00
2019-01-31T19:23:07.563Z,97868.00
2019-01-31T19:25:36.701Z,97880.00
2019-01-31T19:28:06.560Z,97877.00
2019-01-31T19:30:39.147Z,97884.00
2019-01-31T19:33:08.742Z,97883.00
2019-01-31T19:35:38.392Z,97873.00
2019-01-31T19:38:08.036Z,97879.00
2019-01-31T19:40:40.354Z,97879.00
2019-01-31T19:43:09.521Z,97874.00
2019-01-31T19:45:47.598Z,97875.00
2019-01-31T19:48:17.118Z,97864.00
2019-01-31T19:50:46.262Z,97866.00
2019-01-31T19:53:15.580Z,97867.00
2019-01-31T19:55:45.016Z,97863.00
2019-01-31T19:58:14.778Z,97867.00
2019-01-31T20:00:44.174Z,97863.00
2019-01-31T20:03:13.771Z,97857.00
2019-01-31T20:05:42.885Z,97867.00
2019-01-31T20:08:12.325Z,97860.00
2019-01-31T20:10:41.556Z,97859.00
2019-01-31T20:13:11.500Z,97856.00
2019-01-31T20:15:41.231Z,97850.00
2019-01-31T20:18:10.338Z,97850.00
2019-01-31T20:20:42.548Z,97849.00
2019-01-31T20:23:11.385Z,97846.00
2019-01-31T20:25:40.711Z,97851.00
2019-01-31T20:28:10.924Z,97844.00
2019-01-31T20:30:40.314Z,97844.00
2019-01-31T20:33:09.893Z,97844.00
2019-01-31T20:35:39.107Z,97838.00
2019-01-31T20:38:08.285Z,97836.00
2019-01-31T20:40:40.171Z,97833.00
2019-01-31T20:43:09.365Z,97829.00
2019-01-31T20:45:38.830Z,97829.00
2019-01-31T20:48:08.218Z,97829.00
2019-01-31T20:50:39.332Z,97830.00
2019-01-31T20:53:09.056Z,97827.00
2019-01-31T20:55:38.501Z,97828.00
2019-01-31T20:58:07.982Z,97834.00
2019-01-31T21:00:39.671Z,97831.00
2019-01-31T21:03:10.028Z,97827.00
2019-01-31T21:05:39.266Z,97824.00
2019-01-31T21:08:09.608Z,97816.00
2019-01-31T21:10:38.961Z,97821.00
2019-01-31T21:13:08.891Z,97827.00
2019-01-31T21:15:38.338Z,97815.00
2019-01-31T21:18:07.815Z,97832.00
2019-01-31T21:20:37.144Z,97821.00
2019-01-31T21:23:06.740Z,97820.00
2019-01-31T21:25:36.305Z,97810.00
2019-01-31T21:28:06.308Z,97801.00
2019-01-31T21:30:37.459Z,97804.00
2019-01-31T21:33:06.619Z,97810.00
2019-01-31T21:35:35.844Z,97812.00
2019-01-31T21:38:05.285Z,97812.00
2019-01-31T21:40:36.183Z,97807.00
2019-01-31T21:43:05.893Z,97802.00
2019-01-31T21:45:35.454Z,97801.00
2019-01-31T21:48:05.282Z,97805.00
2019-01-31T21:50:34.496Z,97799.00
2019-01-31T21:53:03.843Z,97797.00
2019-01-31T21:55:32.982Z,97800.00
2019-01-31T21:58:02.323Z,97799.00
2019-01-31T22:00:36.407Z,97798.00
2019-01-31T22:03:07.290Z,97795.00
2019-01-31T22:05:36.387Z,97786.00
2019-01-31T22:08:05.791Z,97790.00
2019-01-31T22:10:35.019Z,97785.00
2019-01-31T22:13:04.336Z,97785.00
2019-01-31T22:15:35.712Z,97771.00
2019-01-31T22:18:05.898Z,97779.00
2019-01-31T22:20:35.020Z,97754.00
2019-01-31T22:23:04.539Z,97752.00
2019-01-31T22:25:33.822Z,97765.00
2019-01-31T22:28:03.068Z,97752.00
2019-01-31T22:30:37.031Z,97767.00
2019-01-31T22:33:06.649Z,97752.00
2019-01-31T22:35:36.391Z,97752.00
2019-01-31T22:38:05.570Z,97741.00
2019-01-31T22:40:34.783Z,97742.00
2019-01-31T22:43:04.052Z,97740.00
2019-01-31T22:45:33.491Z,97736.00
2019-01-31T22:48:02.945Z,97722.00
2019-01-31T22:50:32.048Z,97725.00
2019-01-31T22:53:02.145Z,97726.00
2019-01-31T22:55:31.285Z,97720.00
2019-01-31T22:58:00.747Z,97723.00
2019-01-31T23:00:49.638Z,97717.00
2019-01-31T23:03:19.080Z,97714.00
2019-01-31T23:05:48.193Z,97710.00
2019-01-31T23:08:17.590Z,97710.00
2019-01-31T23:10:46.979Z,97711.00
2019-01-31T23:13:16.089Z,97716.00
2019-01-31T23:15:46.041Z,97697.00
2019-01-31T23:18:15.153Z,97705.00
2019-01-31T23:20:44.550Z,97703.00
2019-01-31T23:23:13.930Z,97697.00
2019-01-31T23:25:43.038Z,97696.00
2019-01-31T23:28:12.424Z,97705.00
2019-01-31T23:30:41.773Z,97703.00
2019-01-31T23:33:10.889Z,97697.00
2019-01-31T23:35:40.243Z,97701.00
2019-01-31T23:38:09.613Z,97705.00
2019-01-31T23:40:39.062Z,97706.00
2019-01-31T23:43:08.510Z,97706.00
2019-01-31T23:45:37.604Z,97709.00
2019-01-31T23:48:06.813Z,97695.00
2019-01-31T23:50:35.934Z,97686.00
2019-01-31T23:53:05.671Z,97683.00
2019-01-31T23:55:34.787Z,97689.00
2019-01-31T23:58:03.952Z,97697.00
